createdAt,value
2022-10-13T00:01:24.500Z,2.03
2022-10-13T00:06:27.076Z,2.17
2022-10-13T00:11:31.393Z,1.87
2022-10-13T00:16:33.181Z,2.03
2022-10-13T00:21:35.187Z,2.20
2022-10-13T00:26:39.555Z,2.30
2022-10-13T00:31:41.868Z,2.17
2022-10-13T00:36:43.610Z,2.10
2022-10-13T00:41:46.942Z,1.87
2022-10-13T00:46:49.055Z,1.97
2022-10-13T00:51:51.369Z,2.47
2022-10-13T00:56:54.939Z,2.13
2022-10-13T01:01:59.547Z,2.43
2022-10-13T01:07:02.162Z,2.17
2022-10-13T01:12:14.244Z,2.30
2022-10-13T01:17:23.109Z,2.30
2022-10-13T01:22:45.446Z,2.50
2022-10-13T01:28:09.212Z,2.50
2022-10-13T01:33:24.276Z,2.57
2022-10-13T01:38:37.315Z,2.57
2022-10-13T01:43:43.315Z,2.10
2022-10-13T01:48:46.806Z,2.10
2022-10-13T01:53:49.344Z,2.70
2022-10-13T01:58:53.054Z,3.00
2022-10-13T02:04:10.278Z,2.57
2022-10-13T02:09:20.609Z,2.53
2022-10-13T02:14:27.104Z,2.80
2022-10-13T02:19:33.576Z,3.07
2022-10-13T02:24:36.117Z,2.47
2022-10-13T02:29:51.186Z,2.60
2022-10-13T02:34:54.497Z,2.50
2022-10-13T02:39:56.574Z,2.57
2022-10-13T02:44:58.365Z,2.80
2022-10-13T02:50:02.048Z,2.73
2022-10-13T02:55:04.921Z,3.03
2022-10-13T03:00:07.956Z,2.47
2022-10-13T03:05:11.000Z,2.43
2022-10-13T03:10:13.180Z,2.60
2022-10-13T03:15:15.266Z,2.90
2022-10-13T03:20:18.319Z,2.83
2022-10-13T03:25:20.165Z,2.80
2022-10-13T03:30:22.120Z,2.93
2022-10-13T03:35:25.576Z,2.80
2022-10-13T03:40:27.558Z,3.03
2022-10-13T03:45:29.370Z,3.30
2022-10-13T03:50:32.898Z,2.90
2022-10-13T03:55:34.688Z,3.10
2022-10-13T04:00:36.589Z,3.60
2022-10-13T04:05:40.063Z,3.60
2022-10-13T04:10:42.124Z,3.70
2022-10-13T04:15:43.794Z,3.47
2022-10-13T04:20:48.227Z,3.93
2022-10-13T04:25:50.400Z,3.97
2022-10-13T04:30:52.419Z,4.20
2022-10-13T04:35:56.227Z,3.20
2022-10-13T04:40:58.379Z,3.30
2022-10-13T04:46:01.260Z,3.67
2022-10-13T04:51:07.984Z,3.40
2022-10-13T04:56:11.989Z,3.47
2022-10-13T05:01:19.002Z,3.80
2022-10-13T05:06:27.116Z,3.97
2022-10-13T05:11:29.653Z,4.37
2022-10-13T05:16:32.294Z,4.77
2022-10-13T05:21:35.620Z,4.30
2022-10-13T05:26:37.582Z,4.70
2022-10-13T05:31:40.200Z,4.63
2022-10-13T05:36:43.519Z,4.37
2022-10-13T05:41:45.160Z,4.40
2022-10-13T05:46:47.129Z,5.20
2022-10-13T05:51:55.070Z,4.97
2022-10-13T05:57:01.596Z,4.10
2022-10-13T06:02:05.467Z,4.87
2022-10-13T06:07:10.013Z,4.57
2022-10-13T06:12:11.834Z,4.87
2022-10-13T06:17:13.855Z,4.87
2022-10-13T06:22:17.180Z,5.37
2022-10-13T06:27:19.395Z,4.93
2022-10-13T06:32:21.724Z,4.90
2022-10-13T06:37:27.522Z,5.20
2022-10-13T06:42:29.385Z,5.13
2022-10-13T06:47:31.567Z,5.90
2022-10-13T06:52:35.252Z,6.23
2022-10-13T06:57:37.255Z,6.77
2022-10-13T07:02:38.933Z,6.17
2022-10-13T07:07:42.481Z,7.37
2022-10-13T07:12:44.166Z,7.40
2022-10-13T07:17:45.785Z,6.87
2022-10-13T07:22:48.844Z,7.30
2022-10-13T07:27:50.476Z,6.30
2022-10-13T07:32:52.317Z,6.80
2022-10-13T07:37:55.392Z,6.77
2022-10-13T07:42:57.265Z,6.70
2022-10-13T07:47:58.850Z,6.67
2022-10-13T07:53:02.447Z,7.20
2022-10-13T07:58:04.092Z,7.47
2022-10-13T08:03:05.775Z,7.87
2022-10-13T08:08:09.166Z,8.20
2022-10-13T08:13:11.699Z,7.53
2022-10-13T08:18:14.987Z,7.53
2022-10-13T08:23:18.221Z,7.10
2022-10-13T08:28:22.616Z,6.77
2022-10-13T08:33:25.474Z,6.67
2022-10-13T08:38:28.461Z,6.63
2022-10-13T08:43:30.189Z,6.30
2022-10-13T08:48:37.283Z,5.93
2022-10-13T08:53:42.471Z,6.33
2022-10-13T08:58:44.363Z,6.27
2022-10-13T09:03:52.386Z,6.27
2022-10-13T09:08:58.038Z,5.97
2022-10-13T09:14:02.816Z,6.47
2022-10-13T09:19:26.157Z,6.27
2022-10-13T09:24:29.316Z,6.77
2022-10-13T09:29:31.309Z,6.67
2022-10-13T09:34:33.391Z,6.70
2022-10-13T09:39:36.883Z,6.70
2022-10-13T09:44:39.113Z,6.30
2022-10-13T09:49:43.221Z,6.00
2022-10-13T09:54:49.236Z,6.10
2022-10-13T09:59:53.484Z,5.40
2022-10-13T10:05:00.323Z,5.73
2022-10-13T10:10:13.175Z,6.43
2022-10-13T10:15:35.424Z,6.97
2022-10-13T10:20:46.533Z,4.90
2022-10-13T10:25:52.381Z,5.65
2022-10-13T10:30:57.516Z,6.35
2022-10-13T10:36:05.321Z,6.72
2022-10-13T10:41:23.129Z,6.07
2022-10-13T10:46:28.449Z,6.23
2022-10-13T10:51:33.014Z,5.37
2022-10-13T10:56:40.061Z,5.40
2022-10-13T11:01:47.107Z,4.57
2022-10-13T11:06:49.125Z,4.77
2022-10-13T11:11:52.745Z,4.60
2022-10-13T11:17:17.192Z,4.67
2022-10-13T11:22:22.127Z,5.07
2022-10-13T11:27:38.895Z,3.40
2022-10-13T11:32:45.560Z,4.60
2022-10-13T11:38:08.290Z,3.43
2022-10-13T11:43:26.215Z,3.50
2022-10-13T11:49:01.777Z,3.73
2022-10-13T11:54:19.372Z,3.77
2022-10-13T11:59:25.902Z,3.80
2022-10-13T12:04:29.143Z,3.63
2022-10-13T12:09:32.474Z,3.80
2022-10-13T12:14:39.772Z,3.60
2022-10-13T12:19:41.954Z,3.80
2022-10-13T12:24:43.971Z,5.03
2022-10-13T12:29:47.232Z,4.40
2022-10-13T12:34:49.319Z,4.60
2022-10-13T12:39:52.194Z,4.37
2022-10-13T12:44:56.764Z,4.47
2022-10-13T12:50:37.563Z,3.63
2022-10-13T12:55:49.970Z,3.87
2022-10-13T13:01:01.014Z,4.33
2022-10-13T13:06:20.853Z,3.60
2022-10-13T13:11:24.606Z,4.00
2022-10-13T13:16:27.778Z,4.57
2022-10-13T13:21:29.524Z,4.63
2022-10-13T13:26:31.297Z,4.00
2022-10-13T13:31:34.835Z,3.80
2022-10-13T13:36:36.617Z,4.20
2022-10-13T13:41:38.365Z,3.60
2022-10-13T13:46:41.901Z,3.57
2022-10-13T13:51:43.581Z,3.37
2022-10-13T13:56:45.753Z,3.93
2022-10-13T14:01:49.020Z,4.10
2022-10-13T14:06:51.525Z,3.97
2022-10-13T14:11:53.579Z,3.63
2022-10-13T14:16:57.305Z,3.67
2022-10-13T14:21:59.853Z,4.30
2022-10-13T14:27:01.500Z,3.57
2022-10-13T14:32:05.274Z,3.47
2022-10-13T14:37:06.954Z,3.20
2022-10-13T14:42:09.059Z,3.33
2022-10-13T14:47:12.569Z,3.20
2022-10-13T14:52:14.807Z,2.97
2022-10-13T14:57:16.926Z,3.03
2022-10-13T15:02:20.828Z,2.90
2022-10-13T15:07:22.906Z,3.00
2022-10-13T15:12:25.309Z,2.93
2022-10-13T15:17:29.902Z,2.63
2022-10-13T15:22:32.229Z,3.20
2022-10-13T15:27:38.071Z,3.27
2022-10-13T15:32:44.691Z,3.13
2022-10-13T15:37:46.437Z,3.03
2022-10-13T15:42:48.422Z,2.50
2022-10-13T15:47:52.367Z,2.83
2022-10-13T15:52:54.129Z,3.03
2022-10-13T15:57:55.956Z,3.57
2022-10-13T16:03:00.182Z,2.90
2022-10-13T16:08:01.884Z,2.97
2022-10-13T16:13:03.530Z,3.43
2022-10-13T16:18:06.575Z,4.20
2022-10-13T16:23:08.253Z,4.27
2022-10-13T16:28:10.308Z,4.80
2022-10-13T16:33:13.505Z,4.53
2022-10-13T16:38:15.820Z,3.77
2022-10-13T16:43:17.902Z,4.07
2022-10-13T16:48:20.895Z,5.00
2022-10-13T16:53:22.893Z,4.47
2022-10-13T16:58:24.768Z,3.73
2022-10-13T17:03:28.664Z,3.40
2022-10-13T17:08:31.339Z,3.67
2022-10-13T17:13:34.775Z,4.70
2022-10-13T17:18:37.863Z,3.27
2022-10-13T17:23:44.616Z,4.07
2022-10-13T17:28:49.575Z,3.70
2022-10-13T17:33:53.270Z,3.73
2022-10-13T17:38:56.587Z,3.57
2022-10-13T17:43:58.255Z,4.17
2022-10-13T17:49:01.761Z,4.20
2022-10-13T17:54:03.973Z,3.70
2022-10-13T17:59:05.988Z,3.43
2022-10-13T18:04:11.889Z,3.63
2022-10-13T18:09:16.202Z,3.37
2022-10-13T18:14:18.414Z,3.53
2022-10-13T18:19:22.280Z,4.63
2022-10-13T18:24:25.095Z,4.57
2022-10-13T18:29:26.986Z,3.73
2022-10-13T18:34:30.477Z,3.70
2022-10-13T18:39:32.139Z,4.13
2022-10-13T18:44:34.677Z,4.60
2022-10-13T18:49:38.121Z,3.90
2022-10-13T18:54:40.174Z,4.63
2022-10-13T18:59:41.855Z,5.33
2022-10-13T19:04:46.314Z,4.03
2022-10-13T19:09:47.903Z,4.10
2022-10-13T19:14:49.745Z,4.30
2022-10-13T19:19:53.481Z,3.60
2022-10-13T19:24:55.164Z,4.20
2022-10-13T19:29:57.016Z,4.23
2022-10-13T19:35:00.043Z,3.93
2022-10-13T19:40:02.281Z,3.80
2022-10-13T19:45:05.836Z,3.60
2022-10-13T19:50:09.677Z,3.33
2022-10-13T19:55:11.716Z,4.17
2022-10-13T20:00:15.166Z,4.03
2022-10-13T20:05:23.234Z,3.63
2022-10-13T20:10:27.668Z,3.83
2022-10-13T20:15:29.310Z,3.80
2022-10-13T20:20:34.016Z,4.27
2022-10-13T20:25:36.714Z,4.33
2022-10-13T20:30:39.259Z,4.03
2022-10-13T20:35:42.572Z,3.87
2022-10-13T20:40:44.512Z,4.73
2022-10-13T20:45:46.777Z,3.57
2022-10-13T20:50:50.307Z,3.90
2022-10-13T20:55:55.637Z,4.23
2022-10-13T21:00:57.970Z,4.00
2022-10-13T21:06:02.832Z,4.00
2022-10-13T21:11:06.278Z,3.90
2022-10-13T21:16:09.443Z,4.00
2022-10-13T21:21:12.969Z,4.20
2022-10-13T21:26:18.967Z,4.23
2022-10-13T21:31:24.615Z,4.20
2022-10-13T21:36:30.195Z,4.23
2022-10-13T21:41:32.160Z,3.93
2022-10-13T21:46:34.779Z,4.53
2022-10-13T21:51:39.895Z,4.57
2022-10-13T21:56:42.248Z,3.97
2022-10-13T22:01:43.896Z,4.40
2022-10-13T22:06:47.604Z,4.20
2022-10-13T22:11:51.823Z,4.47
2022-10-13T22:16:57.246Z,4.43
2022-10-13T22:22:00.638Z,4.83
2022-10-13T22:27:02.311Z,4.60
2022-10-13T22:32:04.534Z,3.73
2022-10-13T22:37:08.067Z,4.10
2022-10-13T22:42:10.172Z,4.67
2022-10-13T22:47:12.147Z,5.07
2022-10-13T22:52:15.107Z,4.97
2022-10-13T22:57:17.235Z,5.40
2022-10-13T23:02:19.337Z,4.90
2022-10-13T23:07:22.902Z,4.97
2022-10-13T23:12:25.208Z,5.20
2022-10-13T23:17:26.894Z,5.50
2022-10-13T23:22:30.146Z,4.70
2022-10-13T23:27:32.129Z,5.37
2022-10-13T23:32:34.298Z,4.97
2022-10-13T23:37:37.636Z,5.10
2022-10-13T23:42:39.263Z,5.90
2022-10-13T23:47:41.200Z,5.80
2022-10-13T23:52:44.544Z,5.30
2022-10-13T23:57:46.200Z,5.10
